sensor_id;sensor_type;location;lat;lon;timestamp;P1;durP1;ratioP1;P2;durP2;ratioP2
59006;SDS011;44792;52.760;6.726;2022-12-10T00:00:24;38.80;;;16.55;;
59006;SDS011;44792;52.760;6.726;2022-12-10T00:02:49;32.83;;;15.88;;
59006;SDS011;44792;52.760;6.726;2022-12-10T00:05:15;37.38;;;16.88;;
59006;SDS011;44792;52.760;6.726;2022-12-10T00:07:40;33.30;;;15.77;;
59006;SDS011;44792;52.760;6.726;2022-12-10T00:10:06;35.30;;;16.98;;
59006;SDS011;44792;52.760;6.726;2022-12-10T00:12:32;36.85;;;16.30;;
59006;SDS011;44792;52.760;6.726;2022-12-10T00:14:57;44.10;;;17.00;;
59006;SDS011;44792;52.760;6.726;2022-12-10T00:17:23;36.53;;;16.27;;
59006;SDS011;44792;52.760;6.726;2022-12-10T00:19:48;36.10;;;16.52;;
59006;SDS011;44792;52.760;6.726;2022-12-10T00:22:14;39.53;;;17.17;;
59006;SDS011;44792;52.760;6.726;2022-12-10T00:24:40;33.83;;;15.43;;
59006;SDS011;44792;52.760;6.726;2022-12-10T00:27:05;36.85;;;16.73;;
59006;SDS011;44792;52.760;6.726;2022-12-10T00:29:31;37.70;;;17.80;;
59006;SDS011;44792;52.760;6.726;2022-12-10T00:31:56;38.92;;;17.48;;
59006;SDS011;44792;52.760;6.726;2022-12-10T00:34:22;40.70;;;17.50;;
59006;SDS011;44792;52.760;6.726;2022-12-10T00:36:47;37.65;;;17.40;;
59006;SDS011;44792;52.760;6.726;2022-12-10T00:39:15;37.58;;;16.55;;
59006;SDS011;44792;52.760;6.726;2022-12-10T00:41:42;34.85;;;16.15;;
59006;SDS011;44792;52.760;6.726;2022-12-10T00:44:08;34.17;;;14.63;;
59006;SDS011;44792;52.760;6.726;2022-12-10T00:46:34;39.70;;;16.08;;
59006;SDS011;44792;52.760;6.726;2022-12-10T00:49:00;40.63;;;18.25;;
59006;SDS011;44792;52.760;6.726;2022-12-10T00:51:26;36.90;;;17.20;;
59006;SDS011;44792;52.760;6.726;2022-12-10T00:53:53;37.05;;;15.65;;
59006;SDS011;44792;52.760;6.726;2022-12-10T00:56:21;44.70;;;17.05;;
59006;SDS011;44792;52.760;6.726;2022-12-10T00:58:48;47.35;;;18.25;;
59006;SDS011;44792;52.760;6.726;2022-12-10T01:03:48;43.17;;;17.65;;
59006;SDS011;44792;52.760;6.726;2022-12-10T01:08:47;39.67;;;18.40;;
59006;SDS011;44792;52.760;6.726;2022-12-10T01:11:15;50.33;;;21.00;;
59006;SDS011;44792;52.760;6.726;2022-12-10T01:13:42;40.55;;;18.05;;
59006;SDS011;44792;52.760;6.726;2022-12-10T01:16:09;42.30;;;17.50;;
59006;SDS011;44792;52.760;6.726;2022-12-10T01:18:36;43.13;;;18.63;;
59006;SDS011;44792;52.760;6.726;2022-12-10T01:21:06;48.67;;;19.27;;
59006;SDS011;44792;52.760;6.726;2022-12-10T01:23:34;46.22;;;18.35;;
59006;SDS011;44792;52.760;6.726;2022-12-10T01:26:02;42.42;;;18.33;;
59006;SDS011;44792;52.760;6.726;2022-12-10T01:28:33;40.00;;;17.80;;
59006;SDS011;44792;52.760;6.726;2022-12-10T01:31:04;41.25;;;17.73;;
59006;SDS011;44792;52.760;6.726;2022-12-10T01:33:31;46.15;;;17.98;;
59006;SDS011;44792;52.760;6.726;2022-12-10T01:36:05;40.95;;;17.70;;
59006;SDS011;44792;52.760;6.726;2022-12-10T01:38:32;39.47;;;17.30;;
59006;SDS011;44792;52.760;6.726;2022-12-10T01:40:58;40.85;;;18.08;;
59006;SDS011;44792;52.760;6.726;2022-12-10T01:43:25;43.05;;;18.98;;
59006;SDS011;44792;52.760;6.726;2022-12-10T01:45:51;39.75;;;16.63;;
59006;SDS011;44792;52.760;6.726;2022-12-10T01:48:17;45.28;;;18.73;;
59006;SDS011;44792;52.760;6.726;2022-12-10T01:50:42;52.95;;;20.52;;
59006;SDS011;44792;52.760;6.726;2022-12-10T01:53:08;44.88;;;18.35;;
59006;SDS011;44792;52.760;6.726;2022-12-10T01:55:39;47.22;;;19.60;;
59006;SDS011;44792;52.760;6.726;2022-12-10T01:58:07;49.63;;;19.38;;
59006;SDS011;44792;52.760;6.726;2022-12-10T02:00:34;47.60;;;19.48;;
59006;SDS011;44792;52.760;6.726;2022-12-10T02:03:13;49.28;;;18.60;;
59006;SDS011;44792;52.760;6.726;2022-12-10T02:05:44;45.58;;;19.08;;
59006;SDS011;44792;52.760;6.726;2022-12-10T02:08:37;46.17;;;20.88;;
59006;SDS011;44792;52.760;6.726;2022-12-10T02:11:16;54.10;;;20.15;;
59006;SDS011;44792;52.760;6.726;2022-12-10T02:13:58;47.03;;;18.98;;
59006;SDS011;44792;52.760;6.726;2022-12-10T02:16:30;43.58;;;19.63;;
59006;SDS011;44792;52.760;6.726;2022-12-10T02:21:38;49.70;;;20.37;;
59006;SDS011;44792;52.760;6.726;2022-12-10T02:24:08;48.15;;;21.48;;
59006;SDS011;44792;52.760;6.726;2022-12-10T02:26:44;50.22;;;20.27;;
59006;SDS011;44792;52.760;6.726;2022-12-10T02:29:18;51.10;;;21.77;;
59006;SDS011;44792;52.760;6.726;2022-12-10T02:32:44;44.08;;;18.33;;
59006;SDS011;44792;52.760;6.726;2022-12-10T02:34:45;45.17;;;19.20;;
59006;SDS011;44792;52.760;6.726;2022-12-10T02:37:15;43.67;;;19.42;;
59006;SDS011;44792;52.760;6.726;2022-12-10T02:39:47;50.10;;;19.97;;
59006;SDS011;44792;52.760;6.726;2022-12-10T02:42:18;46.30;;;18.13;;
59006;SDS011;44792;52.760;6.726;2022-12-10T02:44:46;46.92;;;19.05;;
59006;SDS011;44792;52.760;6.726;2022-12-10T02:47:15;52.40;;;21.23;;
59006;SDS011;44792;52.760;6.726;2022-12-10T02:49:42;50.25;;;22.10;;
59006;SDS011;44792;52.760;6.726;2022-12-10T02:52:12;49.15;;;20.55;;
59006;SDS011;44792;52.760;6.726;2022-12-10T02:54:42;56.63;;;21.83;;
59006;SDS011;44792;52.760;6.726;2022-12-10T02:59:42;57.38;;;22.52;;
59006;SDS011;44792;52.760;6.726;2022-12-10T03:02:16;51.25;;;21.05;;
59006;SDS011;44792;52.760;6.726;2022-12-10T03:07:48;50.08;;;22.40;;
59006;SDS011;44792;52.760;6.726;2022-12-10T03:10:30;51.58;;;20.50;;
59006;SDS011;44792;52.760;6.726;2022-12-10T03:13:00;54.55;;;19.92;;
59006;SDS011;44792;52.760;6.726;2022-12-10T03:15:31;48.97;;;20.48;;
59006;SDS011;44792;52.760;6.726;2022-12-10T03:18:00;46.85;;;19.60;;
59006;SDS011;44792;52.760;6.726;2022-12-10T03:20:28;45.10;;;19.00;;
59006;SDS011;44792;52.760;6.726;2022-12-10T03:22:57;50.00;;;19.67;;
59006;SDS011;44792;52.760;6.726;2022-12-10T03:25:25;52.20;;;21.25;;
59006;SDS011;44792;52.760;6.726;2022-12-10T03:27:54;54.38;;;22.33;;
59006;SDS011;44792;52.760;6.726;2022-12-10T03:30:21;46.88;;;20.13;;
59006;SDS011;44792;52.760;6.726;2022-12-10T03:32:47;51.63;;;19.88;;
59006;SDS011;44792;52.760;6.726;2022-12-10T03:35:14;54.58;;;22.30;;
59006;SDS011;44792;52.760;6.726;2022-12-10T03:37:42;48.30;;;20.33;;
59006;SDS011;44792;52.760;6.726;2022-12-10T03:40:08;55.60;;;22.30;;
59006;SDS011;44792;52.760;6.726;2022-12-10T03:42:36;52.42;;;20.45;;
59006;SDS011;44792;52.760;6.726;2022-12-10T03:45:02;53.10;;;21.98;;
59006;SDS011;44792;52.760;6.726;2022-12-10T03:47:28;54.17;;;20.85;;
59006;SDS011;44792;52.760;6.726;2022-12-10T03:49:54;53.13;;;21.60;;
59006;SDS011;44792;52.760;6.726;2022-12-10T03:52:19;52.25;;;21.27;;
59006;SDS011;44792;52.760;6.726;2022-12-10T03:54:45;53.67;;;22.00;;
59006;SDS011;44792;52.760;6.726;2022-12-10T03:57:10;46.17;;;20.67;;
59006;SDS011;44792;52.760;6.726;2022-12-10T03:59:36;54.90;;;22.35;;
59006;SDS011;44792;52.760;6.726;2022-12-10T04:02:02;46.38;;;20.63;;
59006;SDS011;44792;52.760;6.726;2022-12-10T04:04:28;50.75;;;21.95;;
59006;SDS011;44792;52.760;6.726;2022-12-10T04:06:53;50.15;;;21.83;;
59006;SDS011;44792;52.760;6.726;2022-12-10T04:09:19;59.35;;;21.05;;
59006;SDS011;44792;52.760;6.726;2022-12-10T04:11:45;46.05;;;19.98;;
59006;SDS011;44792;52.760;6.726;2022-12-10T04:14:10;59.83;;;20.95;;
59006;SDS011;44792;52.760;6.726;2022-12-10T04:16:56;55.08;;;22.70;;
59006;SDS011;44792;52.760;6.726;2022-12-10T04:19:21;53.85;;;22.00;;
59006;SDS011;44792;52.760;6.726;2022-12-10T04:21:48;48.35;;;20.30;;
59006;SDS011;44792;52.760;6.726;2022-12-10T04:24:33;46.58;;;19.65;;
59006;SDS011;44792;52.760;6.726;2022-12-10T04:27:25;54.67;;;21.02;;
59006;SDS011;44792;52.760;6.726;2022-12-10T04:29:53;62.75;;;23.25;;
59006;SDS011;44792;52.760;6.726;2022-12-10T04:32:20;43.97;;;19.65;;
59006;SDS011;44792;52.760;6.726;2022-12-10T04:34:46;47.00;;;21.33;;
59006;SDS011;44792;52.760;6.726;2022-12-10T04:37:12;56.78;;;22.95;;
59006;SDS011;44792;52.760;6.726;2022-12-10T04:39:38;50.70;;;21.40;;
59006;SDS011;44792;52.760;6.726;2022-12-10T04:42:04;50.38;;;22.52;;
59006;SDS011;44792;52.760;6.726;2022-12-10T04:44:30;49.42;;;21.27;;
59006;SDS011;44792;52.760;6.726;2022-12-10T04:46:56;55.92;;;20.25;;
59006;SDS011;44792;52.760;6.726;2022-12-10T04:49:22;50.42;;;20.65;;
59006;SDS011;44792;52.760;6.726;2022-12-10T04:51:47;53.88;;;20.58;;
59006;SDS011;44792;52.760;6.726;2022-12-10T04:54:13;47.03;;;20.30;;
59006;SDS011;44792;52.760;6.726;2022-12-10T04:56:39;52.08;;;20.95;;
59006;SDS011;44792;52.760;6.726;2022-12-10T04:59:05;52.53;;;22.75;;
59006;SDS011;44792;52.760;6.726;2022-12-10T05:01:32;48.92;;;20.27;;
59006;SDS011;44792;52.760;6.726;2022-12-10T05:04:01;48.55;;;21.63;;
59006;SDS011;44792;52.760;6.726;2022-12-10T05:06:29;52.58;;;21.73;;
59006;SDS011;44792;52.760;6.726;2022-12-10T05:08:55;57.28;;;21.60;;
59006;SDS011;44792;52.760;6.726;2022-12-10T05:11:24;52.88;;;21.95;;
59006;SDS011;44792;52.760;6.726;2022-12-10T05:13:52;57.05;;;21.98;;
59006;SDS011;44792;52.760;6.726;2022-12-10T05:16:18;50.63;;;21.30;;
59006;SDS011;44792;52.760;6.726;2022-12-10T05:18:45;53.05;;;22.67;;
59006;SDS011;44792;52.760;6.726;2022-12-10T05:21:12;51.58;;;20.02;;
59006;SDS011;44792;52.760;6.726;2022-12-10T05:23:40;54.63;;;21.13;;
59006;SDS011;44792;52.760;6.726;2022-12-10T05:26:12;48.20;;;21.52;;
59006;SDS011;44792;52.760;6.726;2022-12-10T05:28:42;57.47;;;22.00;;
59006;SDS011;44792;52.760;6.726;2022-12-10T05:31:13;52.78;;;20.35;;
59006;SDS011;44792;52.760;6.726;2022-12-10T05:33:39;56.67;;;21.40;;
59006;SDS011;44792;52.760;6.726;2022-12-10T05:36:06;53.78;;;21.73;;
59006;SDS011;44792;52.760;6.726;2022-12-10T05:38:32;55.45;;;22.27;;
59006;SDS011;44792;52.760;6.726;2022-12-10T05:41:05;54.45;;;20.42;;
59006;SDS011;44792;52.760;6.726;2022-12-10T05:43:32;54.75;;;21.55;;
59006;SDS011;44792;52.760;6.726;2022-12-10T05:45:59;59.05;;;20.60;;
59006;SDS011;44792;52.760;6.726;2022-12-10T05:48:33;50.30;;;21.85;;
59006;SDS011;44792;52.760;6.726;2022-12-10T05:51:07;48.67;;;19.63;;
59006;SDS011;44792;52.760;6.726;2022-12-10T05:53:36;53.75;;;22.15;;
59006;SDS011;44792;52.760;6.726;2022-12-10T05:56:03;53.70;;;21.45;;
59006;SDS011;44792;52.760;6.726;2022-12-10T05:58:36;57.63;;;22.92;;
59006;SDS011;44792;52.760;6.726;2022-12-10T06:01:06;60.80;;;23.40;;
59006;SDS011;44792;52.760;6.726;2022-12-10T06:03:33;56.50;;;20.58;;
59006;SDS011;44792;52.760;6.726;2022-12-10T06:05:59;58.47;;;21.73;;
59006;SDS011;44792;52.760;6.726;2022-12-10T06:08:24;55.25;;;19.77;;
59006;SDS011;44792;52.760;6.726;2022-12-10T06:10:50;66.15;;;22.30;;
59006;SDS011;44792;52.760;6.726;2022-12-10T06:13:16;43.70;;;19.70;;
59006;SDS011;44792;52.760;6.726;2022-12-10T06:15:41;50.13;;;21.08;;
59006;SDS011;44792;52.760;6.726;2022-12-10T06:18:07;54.50;;;21.30;;
59006;SDS011;44792;52.760;6.726;2022-12-10T06:20:33;51.03;;;20.70;;
59006;SDS011;44792;52.760;6.726;2022-12-10T06:22:59;55.08;;;21.02;;
59006;SDS011;44792;52.760;6.726;2022-12-10T06:25:24;59.08;;;21.85;;
59006;SDS011;44792;52.760;6.726;2022-12-10T06:27:50;49.97;;;19.60;;
59006;SDS011;44792;52.760;6.726;2022-12-10T06:30:15;49.53;;;20.98;;
59006;SDS011;44792;52.760;6.726;2022-12-10T06:32:41;55.33;;;23.35;;
59006;SDS011;44792;52.760;6.726;2022-12-10T06:35:10;46.47;;;20.50;;
59006;SDS011;44792;52.760;6.726;2022-12-10T06:37:36;58.40;;;22.70;;
59006;SDS011;44792;52.760;6.726;2022-12-10T06:40:02;57.33;;;22.00;;
59006;SDS011;44792;52.760;6.726;2022-12-10T06:42:29;52.22;;;23.10;;
59006;SDS011;44792;52.760;6.726;2022-12-10T06:44:54;60.65;;;23.55;;
59006;SDS011;44792;52.760;6.726;2022-12-10T06:47:20;48.80;;;20.48;;
59006;SDS011;44792;52.760;6.726;2022-12-10T06:49:45;50.25;;;22.17;;
59006;SDS011;44792;52.760;6.726;2022-12-10T06:52:11;60.22;;;23.17;;
59006;SDS011;44792;52.760;6.726;2022-12-10T06:54:36;55.30;;;22.00;;
59006;SDS011;44792;52.760;6.726;2022-12-10T06:57:02;49.88;;;21.70;;
59006;SDS011;44792;52.760;6.726;2022-12-10T06:59:28;59.03;;;22.88;;
59006;SDS011;44792;52.760;6.726;2022-12-10T07:01:53;58.05;;;22.63;;
59006;SDS011;44792;52.760;6.726;2022-12-10T07:04:19;57.42;;;22.88;;
59006;SDS011;44792;52.760;6.726;2022-12-10T07:06:44;52.15;;;19.80;;
59006;SDS011;44792;52.760;6.726;2022-12-10T07:09:10;63.28;;;21.55;;
59006;SDS011;44792;52.760;6.726;2022-12-10T07:11:36;56.08;;;22.13;;
59006;SDS011;44792;52.760;6.726;2022-12-10T07:14:02;59.45;;;21.80;;
59006;SDS011;44792;52.760;6.726;2022-12-10T07:16:29;52.83;;;20.90;;
59006;SDS011;44792;52.760;6.726;2022-12-10T07:18:57;59.65;;;23.13;;
59006;SDS011;44792;52.760;6.726;2022-12-10T07:21:25;53.78;;;21.55;;
59006;SDS011;44792;52.760;6.726;2022-12-10T07:23:53;61.97;;;24.45;;
59006;SDS011;44792;52.760;6.726;2022-12-10T07:26:22;61.97;;;22.85;;
59006;SDS011;44792;52.760;6.726;2022-12-10T07:31:21;56.70;;;21.33;;
59006;SDS011;44792;52.760;6.726;2022-12-10T07:33:47;57.53;;;24.23;;
59006;SDS011;44792;52.760;6.726;2022-12-10T07:36:13;57.45;;;22.55;;
59006;SDS011;44792;52.760;6.726;2022-12-10T07:38:39;64.28;;;23.73;;
59006;SDS011;44792;52.760;6.726;2022-12-10T07:41:05;57.80;;;21.45;;
59006;SDS011;44792;52.760;6.726;2022-12-10T07:43:34;58.17;;;22.08;;
59006;SDS011;44792;52.760;6.726;2022-12-10T07:46:08;56.58;;;22.02;;
59006;SDS011;44792;52.760;6.726;2022-12-10T07:48:39;55.67;;;21.85;;
59006;SDS011;44792;52.760;6.726;2022-12-10T07:51:06;56.28;;;21.90;;
59006;SDS011;44792;52.760;6.726;2022-12-10T07:53:32;56.00;;;21.25;;
59006;SDS011;44792;52.760;6.726;2022-12-10T07:55:58;59.97;;;22.63;;
59006;SDS011;44792;52.760;6.726;2022-12-10T07:58:23;60.05;;;24.17;;
59006;SDS011;44792;52.760;6.726;2022-12-10T08:00:49;60.75;;;22.40;;
59006;SDS011;44792;52.760;6.726;2022-12-10T08:03:15;55.72;;;22.77;;
59006;SDS011;44792;52.760;6.726;2022-12-10T08:05:41;64.50;;;24.75;;
59006;SDS011;44792;52.760;6.726;2022-12-10T08:08:06;62.42;;;23.45;;
59006;SDS011;44792;52.760;6.726;2022-12-10T08:10:36;60.80;;;24.23;;
59006;SDS011;44792;52.760;6.726;2022-12-10T08:13:02;59.17;;;22.48;;
59006;SDS011;44792;52.760;6.726;2022-12-10T08:15:29;59.30;;;24.25;;
59006;SDS011;44792;52.760;6.726;2022-12-10T08:17:54;51.60;;;21.67;;
59006;SDS011;44792;52.760;6.726;2022-12-10T08:20:21;57.67;;;24.75;;
59006;SDS011;44792;52.760;6.726;2022-12-10T08:22:47;55.67;;;23.38;;
59006;SDS011;44792;52.760;6.726;2022-12-10T08:25:13;56.45;;;22.92;;
59006;SDS011;44792;52.760;6.726;2022-12-10T08:27:39;56.78;;;23.42;;
59006;SDS011;44792;52.760;6.726;2022-12-10T08:30:04;61.50;;;24.90;;
59006;SDS011;44792;52.760;6.726;2022-12-10T08:32:30;58.90;;;24.27;;
59006;SDS011;44792;52.760;6.726;2022-12-10T08:34:56;61.63;;;23.50;;
59006;SDS011;44792;52.760;6.726;2022-12-10T08:37:22;60.00;;;22.65;;
59006;SDS011;44792;52.760;6.726;2022-12-10T08:39:47;53.47;;;22.38;;
59006;SDS011;44792;52.760;6.726;2022-12-10T08:42:13;61.72;;;23.00;;
59006;SDS011;44792;52.760;6.726;2022-12-10T08:44:38;55.97;;;22.92;;
59006;SDS011;44792;52.760;6.726;2022-12-10T08:47:04;55.67;;;22.92;;
59006;SDS011;44792;52.760;6.726;2022-12-10T08:49:30;59.10;;;23.35;;
59006;SDS011;44792;52.760;6.726;2022-12-10T08:51:55;62.30;;;24.17;;
59006;SDS011;44792;52.760;6.726;2022-12-10T08:54:21;58.88;;;24.45;;
59006;SDS011;44792;52.760;6.726;2022-12-10T08:56:46;59.33;;;24.10;;
59006;SDS011;44792;52.760;6.726;2022-12-10T08:59:12;55.28;;;21.85;;
59006;SDS011;44792;52.760;6.726;2022-12-10T09:01:38;52.97;;;21.77;;
59006;SDS011;44792;52.760;6.726;2022-12-10T09:04:04;52.05;;;21.50;;
59006;SDS011;44792;52.760;6.726;2022-12-10T09:06:30;57.75;;;22.17;;
59006;SDS011;44792;52.760;6.726;2022-12-10T09:08:55;58.08;;;23.85;;
59006;SDS011;44792;52.760;6.726;2022-12-10T09:11:23;66.80;;;25.35;;
59006;SDS011;44792;52.760;6.726;2022-12-10T09:13:51;64.25;;;25.10;;
59006;SDS011;44792;52.760;6.726;2022-12-10T09:16:17;63.25;;;24.02;;
59006;SDS011;44792;52.760;6.726;2022-12-10T09:18:43;55.17;;;22.30;;
59006;SDS011;44792;52.760;6.726;2022-12-10T09:21:10;57.85;;;22.08;;
59006;SDS011;44792;52.760;6.726;2022-12-10T09:23:37;64.90;;;25.63;;
59006;SDS011;44792;52.760;6.726;2022-12-10T09:26:07;55.15;;;24.50;;
59006;SDS011;44792;52.760;6.726;2022-12-10T09:28:35;60.03;;;25.20;;
59006;SDS011;44792;52.760;6.726;2022-12-10T09:31:01;52.95;;;22.70;;
59006;SDS011;44792;52.760;6.726;2022-12-10T09:33:27;63.65;;;24.20;;
59006;SDS011;44792;52.760;6.726;2022-12-10T09:35:53;57.85;;;24.45;;
59006;SDS011;44792;52.760;6.726;2022-12-10T09:38:19;59.10;;;24.17;;
59006;SDS011;44792;52.760;6.726;2022-12-10T09:49:12;57.47;;;21.95;;
59006;SDS011;44792;52.760;6.726;2022-12-10T09:51:45;58.70;;;23.45;;
59006;SDS011;44792;52.760;6.726;2022-12-10T09:54:45;57.55;;;24.70;;
59006;SDS011;44792;52.760;6.726;2022-12-10T09:57:05;62.55;;;24.83;;
59006;SDS011;44792;52.760;6.726;2022-12-10T09:59:39;54.92;;;24.08;;
59006;SDS011;44792;52.760;6.726;2022-12-10T10:02:18;60.20;;;25.42;;
59006;SDS011;44792;52.760;6.726;2022-12-10T10:04:45;61.30;;;23.30;;
59006;SDS011;44792;52.760;6.726;2022-12-10T10:07:17;57.83;;;24.90;;
59006;SDS011;44792;52.760;6.726;2022-12-10T10:09:46;59.58;;;23.58;;
59006;SDS011;44792;52.760;6.726;2022-12-10T10:12:15;60.88;;;24.92;;
59006;SDS011;44792;52.760;6.726;2022-12-10T10:14:41;62.88;;;25.38;;
59006;SDS011;44792;52.760;6.726;2022-12-10T10:20:12;60.60;;;23.95;;
59006;SDS011;44792;52.760;6.726;2022-12-10T10:22:39;66.88;;;26.77;;
59006;SDS011;44792;52.760;6.726;2022-12-10T10:25:05;63.92;;;25.10;;
59006;SDS011;44792;52.760;6.726;2022-12-10T10:27:41;64.25;;;25.95;;
59006;SDS011;44792;52.760;6.726;2022-12-10T10:30:07;62.38;;;24.98;;
59006;SDS011;44792;52.760;6.726;2022-12-10T10:35:07;68.20;;;26.63;;
59006;SDS011;44792;52.760;6.726;2022-12-10T10:37:43;70.82;;;26.42;;
59006;SDS011;44792;52.760;6.726;2022-12-10T10:40:22;59.95;;;26.02;;
59006;SDS011;44792;52.760;6.726;2022-12-10T10:42:58;52.05;;;22.45;;
59006;SDS011;44792;52.760;6.726;2022-12-10T10:45:47;71.00;;;24.98;;
59006;SDS011;44792;52.760;6.726;2022-12-10T10:48:16;59.63;;;24.90;;
59006;SDS011;44792;52.760;6.726;2022-12-10T10:53:22;52.22;;;21.70;;
59006;SDS011;44792;52.760;6.726;2022-12-10T10:55:51;56.97;;;21.67;;
59006;SDS011;44792;52.760;6.726;2022-12-10T10:58:20;60.85;;;23.52;;
59006;SDS011;44792;52.760;6.726;2022-12-10T11:00:57;56.60;;;22.92;;
59006;SDS011;44792;52.760;6.726;2022-12-10T11:03:32;59.33;;;21.60;;
59006;SDS011;44792;52.760;6.726;2022-12-10T11:06:00;62.38;;;24.50;;
59006;SDS011;44792;52.760;6.726;2022-12-10T11:08:29;63.67;;;23.05;;
59006;SDS011;44792;52.760;6.726;2022-12-10T11:11:03;67.95;;;22.67;;
59006;SDS011;44792;52.760;6.726;2022-12-10T11:13:32;59.50;;;22.80;;
59006;SDS011;44792;52.760;6.726;2022-12-10T11:16:17;60.70;;;23.17;;
59006;SDS011;44792;52.760;6.726;2022-12-10T11:18:53;59.92;;;20.75;;
59006;SDS011;44792;52.760;6.726;2022-12-10T11:21:27;69.43;;;23.35;;
59006;SDS011;44792;52.760;6.726;2022-12-10T11:23:55;63.08;;;22.05;;
59006;SDS011;44792;52.760;6.726;2022-12-10T11:26:28;59.30;;;24.30;;
59006;SDS011;44792;52.760;6.726;2022-12-10T11:32:35;58.22;;;22.38;;
59006;SDS011;44792;52.760;6.726;2022-12-10T11:35:26;61.13;;;23.55;;
59006;SDS011;44792;52.760;6.726;2022-12-10T11:52:04;59.58;;;23.27;;
59006;SDS011;44792;52.760;6.726;2022-12-10T11:57:19;63.80;;;23.58;;
59006;SDS011;44792;52.760;6.726;2022-12-10T12:02:52;71.28;;;26.23;;
59006;SDS011;44792;52.760;6.726;2022-12-10T12:05:48;62.90;;;24.55;;
59006;SDS011;44792;52.760;6.726;2022-12-10T12:14:06;62.10;;;23.70;;
59006;SDS011;44792;52.760;6.726;2022-12-10T12:16:40;70.65;;;24.40;;
59006;SDS011;44792;52.760;6.726;2022-12-10T12:19:12;69.70;;;26.47;;
59006;SDS011;44792;52.760;6.726;2022-12-10T12:21:43;71.80;;;25.67;;
59006;SDS011;44792;52.760;6.726;2022-12-10T12:24:21;66.10;;;25.85;;
59006;SDS011;44792;52.760;6.726;2022-12-10T12:27:00;76.25;;;25.73;;
59006;SDS011;44792;52.760;6.726;2022-12-10T12:29:33;70.80;;;23.15;;
59006;SDS011;44792;52.760;6.726;2022-12-10T12:32:21;63.70;;;22.88;;
59006;SDS011;44792;52.760;6.726;2022-12-10T12:35:01;69.40;;;25.17;;
59006;SDS011;44792;52.760;6.726;2022-12-10T12:38:15;67.68;;;26.92;;
59006;SDS011;44792;52.760;6.726;2022-12-10T12:40:34;64.35;;;23.60;;
59006;SDS011;44792;52.760;6.726;2022-12-10T12:43:10;65.63;;;23.48;;
59006;SDS011;44792;52.760;6.726;2022-12-10T12:45:40;69.80;;;26.10;;
59006;SDS011;44792;52.760;6.726;2022-12-10T12:54:03;50.95;;;22.20;;
59006;SDS011;44792;52.760;6.726;2022-12-10T13:05:14;57.67;;;21.48;;
59006;SDS011;44792;52.760;6.726;2022-12-10T13:08:14;56.80;;;22.83;;
59006;SDS011;44792;52.760;6.726;2022-12-10T13:10:59;50.08;;;20.73;;
59006;SDS011;44792;52.760;6.726;2022-12-10T13:13:33;57.78;;;21.85;;
59006;SDS011;44792;52.760;6.726;2022-12-10T13:16:33;62.35;;;23.35;;
59006;SDS011;44792;52.760;6.726;2022-12-10T13:29:29;59.00;;;23.17;;
59006;SDS011;44792;52.760;6.726;2022-12-10T13:32:16;59.30;;;22.63;;
59006;SDS011;44792;52.760;6.726;2022-12-10T13:37:33;62.33;;;24.30;;
59006;SDS011;44792;52.760;6.726;2022-12-10T13:40:21;59.83;;;23.38;;
59006;SDS011;44792;52.760;6.726;2022-12-10T13:46:25;69.17;;;24.73;;
59006;SDS011;44792;52.760;6.726;2022-12-10T13:48:56;63.45;;;22.13;;
59006;SDS011;44792;52.760;6.726;2022-12-10T13:57:18;63.80;;;22.92;;
59006;SDS011;44792;52.760;6.726;2022-12-10T14:00:20;67.20;;;23.25;;
59006;SDS011;44792;52.760;6.726;2022-12-10T14:03:07;68.13;;;23.40;;
59006;SDS011;44792;52.760;6.726;2022-12-10T14:08:37;64.03;;;22.83;;
59006;SDS011;44792;52.760;6.726;2022-12-10T14:11:16;65.53;;;24.33;;
59006;SDS011;44792;52.760;6.726;2022-12-10T14:13:54;65.57;;;24.60;;
59006;SDS011;44792;52.760;6.726;2022-12-10T14:16:25;56.28;;;20.75;;
59006;SDS011;44792;52.760;6.726;2022-12-10T14:18:58;67.80;;;23.80;;
59006;SDS011;44792;52.760;6.726;2022-12-10T14:21:31;54.75;;;21.25;;
59006;SDS011;44792;52.760;6.726;2022-12-10T14:24:03;52.25;;;20.48;;
59006;SDS011;44792;52.760;6.726;2022-12-10T14:26:31;57.50;;;21.60;;
59006;SDS011;44792;52.760;6.726;2022-12-10T14:31:29;61.88;;;23.33;;
59006;SDS011;44792;52.760;6.726;2022-12-10T14:34:02;52.25;;;20.70;;
59006;SDS011;44792;52.760;6.726;2022-12-10T14:36:32;54.50;;;20.13;;
59006;SDS011;44792;52.760;6.726;2022-12-10T14:39:01;54.97;;;20.35;;
59006;SDS011;44792;52.760;6.726;2022-12-10T14:41:27;57.40;;;20.05;;
59006;SDS011;44792;52.760;6.726;2022-12-10T14:43:56;52.03;;;20.25;;
59006;SDS011;44792;52.760;6.726;2022-12-10T14:46:27;55.00;;;19.95;;
59006;SDS011;44792;52.760;6.726;2022-12-10T14:48:54;58.78;;;21.48;;
59006;SDS011;44792;52.760;6.726;2022-12-10T14:51:21;58.20;;;20.85;;
59006;SDS011;44792;52.760;6.726;2022-12-10T14:53:50;51.42;;;22.27;;
59006;SDS011;44792;52.760;6.726;2022-12-10T14:58:51;55.20;;;21.40;;
59006;SDS011;44792;52.760;6.726;2022-12-10T15:01:30;50.83;;;19.98;;
59006;SDS011;44792;52.760;6.726;2022-12-10T15:04:00;49.22;;;20.55;;
59006;SDS011;44792;52.760;6.726;2022-12-10T15:06:28;53.03;;;19.63;;
59006;SDS011;44792;52.760;6.726;2022-12-10T15:08:57;53.35;;;19.90;;
59006;SDS011;44792;52.760;6.726;2022-12-10T15:11:24;59.20;;;23.00;;
59006;SDS011;44792;52.760;6.726;2022-12-10T15:13:53;53.65;;;20.40;;
59006;SDS011;44792;52.760;6.726;2022-12-10T15:16:45;56.35;;;21.75;;
59006;SDS011;44792;52.760;6.726;2022-12-10T15:19:22;58.85;;;23.65;;
59006;SDS011;44792;52.760;6.726;2022-12-10T15:22:01;54.17;;;21.00;;
59006;SDS011;44792;52.760;6.726;2022-12-10T15:24:43;49.53;;;20.33;;
59006;SDS011;44792;52.760;6.726;2022-12-10T15:27:16;44.75;;;18.23;;
59006;SDS011;44792;52.760;6.726;2022-12-10T15:29:43;50.03;;;18.10;;
59006;SDS011;44792;52.760;6.726;2022-12-10T15:32:27;54.33;;;19.58;;
59006;SDS011;44792;52.760;6.726;2022-12-10T15:34:58;44.90;;;18.23;;
59006;SDS011;44792;52.760;6.726;2022-12-10T15:37:26;50.90;;;18.33;;
59006;SDS011;44792;52.760;6.726;2022-12-10T15:39:57;51.38;;;18.77;;
59006;SDS011;44792;52.760;6.726;2022-12-10T15:42:29;46.80;;;17.48;;
59006;SDS011;44792;52.760;6.726;2022-12-10T15:45:08;54.63;;;19.48;;
59006;SDS011;44792;52.760;6.726;2022-12-10T15:47:52;56.67;;;19.83;;
59006;SDS011;44792;52.760;6.726;2022-12-10T15:50:21;49.17;;;18.20;;
59006;SDS011;44792;52.760;6.726;2022-12-10T15:52:47;42.08;;;17.27;;
59006;SDS011;44792;52.760;6.726;2022-12-10T15:55:13;53.83;;;18.45;;
59006;SDS011;44792;52.760;6.726;2022-12-10T15:57:41;52.35;;;18.15;;
59006;SDS011;44792;52.760;6.726;2022-12-10T16:02:48;51.08;;;19.80;;
59006;SDS011;44792;52.760;6.726;2022-12-10T16:07:54;53.08;;;19.15;;
59006;SDS011;44792;52.760;6.726;2022-12-10T16:10:22;54.00;;;18.80;;
59006;SDS011;44792;52.760;6.726;2022-12-10T16:12:57;48.83;;;18.25;;
59006;SDS011;44792;52.760;6.726;2022-12-10T16:15:25;54.55;;;20.13;;
59006;SDS011;44792;52.760;6.726;2022-12-10T16:17:53;57.95;;;18.70;;
59006;SDS011;44792;52.760;6.726;2022-12-10T16:20:21;50.67;;;18.48;;
59006;SDS011;44792;52.760;6.726;2022-12-10T16:22:52;47.20;;;19.17;;
59006;SDS011;44792;52.760;6.726;2022-12-10T16:25:19;52.22;;;19.05;;
59006;SDS011;44792;52.760;6.726;2022-12-10T16:27:45;55.72;;;18.50;;